KLBF/LBF METAR and TAF weather

Enter ICAO airport designator
Station Type Date Time Source
KLBF METAR 2019/06/26 19:53 UTC NOAA

KLBF 261953Z AUTO 18014G25KT 10SM CLR 30/18 A2998 RMK AO2 SLP122 T03000178


Station Type Date Time Source
KLBF Decoded METAR 2019/06/26 19:53 UTC NOAA

NORTH PLATTE REGIONAL AIRPORT , NE, United States (KLBF) 41-07N 100-40W 847M
Jun 26, 2019 - 03:53 PM EDT / 2019.06.26 1953 UTC
Wind: from the S (180 degrees) at 16 MPH (14 KT) gusting to 29 MPH (25 KT):0
Visibility: 10 mile(s):0
Sky conditions: clear
Temperature: 86.0 F (30.0 C)
Dew Point: 64.0 F (17.8 C)
Relative Humidity: 48%
Pressure (altimeter): 29.98 in. Hg (1015 hPa)
ob: KLBF 261953Z AUTO 18014G25KT 10SM CLR 30/18 A2998 RMK AO2 SLP122 T03000178
cycle: 20

Station Type Date Time Source
KLBF TAF 2019/06/26 18:30 UTC NOAA

TAF KLBF 261727Z 2618/2718 15012G19KT P6SM FEW070 SCT250
FM270000 14010KT P6SM SCT070 SCT250
FM270200 18008KT P6SM SCT050 BKN200
FM270600 16006KT P6SM SCT250
FM270900 15004KT P6SM FEW250

Example: see airport list